Time;durP1;ratioP1;P1;durP2;ratioP2;P2;SDS_P1;SDS_P2;PMS_P1;PMS_P2;Temp;Humidity;BMP_temperature;BMP_pressure;BME280_temperature;BME280_humidity;BME280_pressure;Samples;Min_cycle;Max_cycle;Signal;HPM_P1;HPM_P2
2022/12/05 00:01:51;;;;;;;14.00;9.57;;;;;;;;;;5015036;28;20469;-80
2022/12/05 00:04:16;;;;;;;14.80;10.32;;;;;;;;;;5016254;28;20038;-80
2022/12/05 00:06:42;;;;;;;13.77;10.48;;;;;;;;;;5016042;28;20174;-79
2022/12/05 00:09:10;;;;;;;14.02;9.75;;;;;;;;;;5014659;28;20037;-81
2022/12/05 00:11:37;;;;;;;13.60;10.00;;;;;;;;;;5015860;28;20416;-81
2022/12/05 00:14:04;;;;;;;12.60;9.32;;;;;;;;;;5014821;28;20456;-81
2022/12/05 00:16:31;;;;;;;12.80;9.27;;;;;;;;;;5014711;28;20030;-81
2022/12/05 00:19:00;;;;;;;12.95;9.80;;;;;;;;;;5015657;28;20033;-82
2022/12/05 00:21:28;;;;;;;14.20;10.02;;;;;;;;;;5014746;28;20029;-82
2022/12/05 00:23:55;;;;;;;13.27;9.68;;;;;;;;;;5015912;28;20030;-82
2022/12/05 00:26:21;;;;;;;13.65;9.40;;;;;;;;;;5015842;28;20425;-82
2022/12/05 00:28:47;;;;;;;13.73;9.63;;;;;;;;;;4997977;28;20029;-82
2022/12/05 00:31:17;;;;;;;12.73;9.38;;;;;;;;;;4997666;28;20089;-82
2022/12/05 00:33:43;;;;;;;13.38;9.50;;;;;;;;;;4998393;28;20037;-82
2022/12/05 00:36:16;;;;;;;12.77;8.85;;;;;;;;;;5014411;28;20100;-81
2022/12/05 00:38:42;;;;;;;13.27;9.00;;;;;;;;;;5015580;28;20030;-81
2022/12/05 00:41:09;;;;;;;12.55;9.65;;;;;;;;;;4997711;28;20036;-81
2022/12/05 00:43:35;;;;;;;12.13;9.15;;;;;;;;;;5014250;28;20022;-80
2022/12/05 00:46:13;;;;;;;12.10;9.30;;;;;;;;;;5014007;28;20101;-80
2022/12/05 00:48:39;;;;;;;13.38;8.88;;;;;;;;;;4997536;28;20443;-80
2022/12/05 00:51:10;;;;;;;11.27;8.65;;;;;;;;;;5014156;28;20054;-80
2022/12/05 00:53:36;;;;;;;10.98;8.55;;;;;;;;;;5013915;28;20029;-80
2022/12/05 00:56:10;;;;;;;12.50;8.77;;;;;;;;;;5013956;28;20037;-81
2022/12/05 00:58:35;;;;;;;;;;;;;;;;;;5014430;28;20532;-78
2022/12/05 01:01:22;;;;;;;11.93;8.50;;;;;;;;;;5013720;28;19953;-80
2022/12/05 01:03:48;;;;;;;11.75;9.18;;;;;;;;;;5014360;28;20030;-81
2022/12/05 01:06:14;;;;;;;11.52;9.27;;;;;;;;;;5013740;28;20040;-80
2022/12/05 01:08:40;;;;;;;14.88;8.63;;;;;;;;;;5013497;28;20492;-80
2022/12/05 01:11:07;;;;;;;11.80;8.77;;;;;;;;;;5013617;28;20068;-81
2022/12/05 01:13:33;;;;;;;11.80;8.60;;;;;;;;;;5014904;28;20026;-82
2022/12/05 01:15:58;;;;;;;11.85;9.55;;;;;;;;;;5013229;28;20037;-81
2022/12/05 01:18:25;;;;;;;12.18;9.00;;;;;;;;;;5013501;28;20068;-81
2022/12/05 01:20:51;;;;;;;13.93;9.50;;;;;;;;;;5013681;28;20038;-81
2022/12/05 01:23:17;;;;;;;12.50;9.07;;;;;;;;;;5013332;28;20030;-81
2022/12/05 01:25:44;;;;;;;12.50;9.23;;;;;;;;;;5013215;28;20346;-81
2022/12/05 01:28:10;;;;;;;12.43;8.75;;;;;;;;;;4996782;28;20473;-80
2022/12/05 01:30:38;;;;;;;12.30;8.88;;;;;;;;;;5013168;28;20116;-80
2022/12/05 01:33:04;;;;;;;12.57;8.88;;;;;;;;;;5012802;28;20046;-80
2022/12/05 01:35:33;;;;;;;14.07;9.50;;;;;;;;;;5012980;28;20029;-81
2022/12/05 01:37:59;;;;;;;12.45;8.90;;;;;;;;;;4996651;28;20104;-81
2022/12/05 01:40:25;;;;;;;12.23;8.48;;;;;;;;;;5013276;28;20153;-81
2022/12/05 01:42:50;;;;;;;12.50;9.52;;;;;;;;;;4996642;28;20037;-81
2022/12/05 01:45:20;;;;;;;12.70;8.65;;;;;;;;;;5012989;28;20503;-81
2022/12/05 01:47:45;;;;;;;12.25;8.50;;;;;;;;;;5013128;28;20022;-81
2022/12/05 01:50:12;;;;;;;11.40;8.50;;;;;;;;;;5014266;28;20080;-81
2022/12/05 01:52:37;;;;;;;11.65;8.85;;;;;;;;;;5029252;28;20052;-81
2022/12/05 01:55:08;;;;;;;13.30;8.40;;;;;;;;;;5013000;28;20472;-81
2022/12/05 01:57:33;;;;;;;12.50;8.40;;;;;;;;;;5012670;28;20022;-81
2022/12/05 02:00:03;;;;;;;12.10;8.77;;;;;;;;;;5012764;28;20476;-81
2022/12/05 02:02:30;;;;;;;13.75;8.90;;;;;;;;;;5012986;28;20093;-81
2022/12/05 02:05:04;;;;;;;13.18;8.98;;;;;;;;;;5012824;28;20065;-81
2022/12/05 02:07:30;;;;;;;9.85;7.88;;;;;;;;;;5028907;28;20021;-81
2022/12/05 02:09:55;;;;;;;11.07;8.10;;;;;;;;;;5012436;28;20036;-81
2022/12/05 02:12:21;;;;;;;11.23;8.43;;;;;;;;;;5028859;28;20095;-81
2022/12/05 02:14:56;;;;;;;11.27;8.60;;;;;;;;;;5012473;28;20166;-80
2022/12/05 02:17:24;;;;;;;11.13;8.45;;;;;;;;;;5028660;28;20026;-81
2022/12/05 02:19:56;;;;;;;11.43;8.77;;;;;;;;;;5013628;28;20018;-80
2022/12/05 02:22:41;;;;;;;12.45;8.90;;;;;;;;;;5028753;28;20022;-80
2022/12/05 02:25:25;;;;;;;11.77;8.20;;;;;;;;;;4995947;28;20040;-80
2022/12/05 02:27:56;;;;;;;11.32;8.27;;;;;;;;;;5029414;28;20080;-80
2022/12/05 02:30:23;;;;;;;15.77;8.52;;;;;;;;;;5013365;28;20051;-80
2022/12/05 02:32:56;;;;;;;13.38;8.80;;;;;;;;;;5012096;28;20073;-81
2022/12/05 02:35:37;;;;;;;11.40;7.97;;;;;;;;;;5012150;28;20108;-81
2022/12/05 02:38:15;;;;;;;10.75;8.10;;;;;;;;;;5012106;28;20069;-81
2022/12/05 02:40:46;;;;;;;12.35;9.15;;;;;;;;;;5028417;28;20137;-80
2022/12/05 02:43:28;;;;;;;13.65;8.43;;;;;;;;;;5013451;28;20021;-80
2022/12/05 02:45:57;;;;;;;13.20;8.43;;;;;;;;;;4995589;28;20025;-80
2022/12/05 02:48:25;;;;;;;11.15;8.20;;;;;;;;;;5012026;28;20049;-81
2022/12/05 02:50:51;;;;;;;11.85;8.88;;;;;;;;;;5012296;28;20065;-81
2022/12/05 02:53:16;;;;;;;11.68;8.57;;;;;;;;;;5012466;28;20030;-81
2022/12/05 02:55:43;;;;;;;11.27;8.32;;;;;;;;;;5011783;28;20057;-82
2022/12/05 02:58:15;;;;;;;12.13;8.48;;;;;;;;;;5013095;28;20045;-82
2022/12/05 03:00:43;;;;;;;9.68;8.02;;;;;;;;;;4995775;28;20038;-81
2022/12/05 03:03:15;;;;;;;11.82;8.25;;;;;;;;;;5012022;28;20087;-82
2022/12/05 03:05:49;;;;;;;10.10;8.20;;;;;;;;;;4995377;28;20033;-80
2022/12/05 03:08:19;;;;;;;10.48;7.88;;;;;;;;;;5012132;28;20028;-81
2022/12/05 03:10:45;;;;;;;13.25;8.65;;;;;;;;;;4995550;28;20373;-81
2022/12/05 03:13:21;;;;;;;12.82;8.52;;;;;;;;;;5013227;28;20026;-81
2022/12/05 03:15:48;;;;;;;9.43;6.97;;;;;;;;;;5011729;28;20523;-81
2022/12/05 03:18:15;;;;;;;14.68;8.45;;;;;;;;;;5011962;28;20472;-81
2022/12/05 03:20:51;;;;;;;9.43;7.40;;;;;;;;;;4995285;28;20542;-81
2022/12/05 03:23:22;;;;;;;9.25;7.60;;;;;;;;;;4995706;28;20061;-80
2022/12/05 03:26:00;;;;;;;10.43;7.85;;;;;;;;;;5012077;28;20022;-80
2022/12/05 03:28:55;;;;;;;10.48;7.47;;;;;;;;;;5016897;28;20032;-81
2022/12/05 03:31:47;;;;;;;9.80;7.20;;;;;;;;;;5012585;28;20085;-81
2022/12/05 03:34:17;;;;;;;11.10;7.55;;;;;;;;;;5012499;28;20489;-80
2022/12/05 03:36:45;;;;;;;10.38;7.25;;;;;;;;;;5015489;28;20022;-80
2022/12/05 03:39:25;;;;;;;8.40;6.72;;;;;;;;;;5015238;28;20029;-81
2022/12/05 03:41:59;;;;;;;9.93;7.30;;;;;;;;;;4998789;28;20037;-81
2022/12/05 03:44:44;;;;;;;10.55;7.63;;;;;;;;;;5015220;28;20488;-81
2022/12/05 03:47:16;;;;;;;9.77;7.13;;;;;;;;;;5016351;28;20478;-81
2022/12/05 03:49:48;;;;;;;9.63;7.15;;;;;;;;;;5015159;28;20030;-82
2022/12/05 03:52:21;;;;;;;10.32;7.63;;;;;;;;;;5015583;28;20121;-83
2022/12/05 03:54:56;;;;;;;10.38;6.88;;;;;;;;;;5015164;28;20427;-83
2022/12/05 03:57:34;;;;;;;11.20;7.20;;;;;;;;;;5014880;28;20130;-82
2022/12/05 04:00:07;;;;;;;10.77;7.13;;;;;;;;;;4998435;28;20030;-82
2022/12/05 04:02:44;;;;;;;10.23;6.87;;;;;;;;;;5014861;28;20480;-82
2022/12/05 04:05:57;;;;;;;10.15;7.05;;;;;;;;;;5016264;28;20263;-81
2022/12/05 04:08:29;;;;;;;8.75;6.55;;;;;;;;;;5014952;28;20109;-81
2022/12/05 04:10:59;;;;;;;8.70;6.65;;;;;;;;;;5015018;28;20026;-82
2022/12/05 04:13:49;;;;;;;9.30;6.60;;;;;;;;;;5014714;28;20034;-80
2022/12/05 04:19:19;;;;;;;11.13;6.38;;;;;;;;;;5015821;28;20037;-81
2022/12/05 04:21:49;;;;;;;11.75;6.38;;;;;;;;;;5016001;28;20030;-81
2022/12/05 04:27:37;;;;;;;7.95;5.95;;;;;;;;;;5014950;28;20033;-81
2022/12/05 04:30:24;;;;;;;10.43;6.63;;;;;;;;;;5001521;28;20066;-81
2022/12/05 04:33:08;;;;;;;8.80;6.63;;;;;;;;;;4997859;28;20054;-80
2022/12/05 04:35:44;;;;;;;9.13;6.60;;;;;;;;;;5030612;28;20041;-81
2022/12/05 04:38:14;;;;;;;8.15;6.53;;;;;;;;;;5014347;28;20383;-80
2022/12/05 04:40:47;;;;;;;9.93;6.72;;;;;;;;;;4997806;28;20034;-81
2022/12/05 04:43:14;;;;;;;8.35;6.13;;;;;;;;;;5014087;28;20018;-80
2022/12/05 04:45:39;;;;;;;9.27;6.47;;;;;;;;;;5014366;28;20053;-79
2022/12/05 04:48:10;;;;;;;8.70;6.40;;;;;;;;;;5015749;28;20072;-80
2022/12/05 04:50:37;;;;;;;9.43;6.70;;;;;;;;;;5014225;28;20032;-80
2022/12/05 04:53:02;;;;;;;8.18;6.53;;;;;;;;;;5030309;28;20514;-81
2022/12/05 04:55:30;;;;;;;8.50;6.47;;;;;;;;;;5013984;28;20029;-79
2022/12/05 04:58:07;;;;;;;8.80;6.60;;;;;;;;;;5013829;28;20022;-80
2022/12/05 05:00:43;;;;;;;9.10;6.65;;;;;;;;;;5015096;28;20108;-80
2022/12/05 05:03:26;;;;;;;8.70;5.82;;;;;;;;;;5014124;28;20084;-81
2022/12/05 05:05:54;;;;;;;8.32;5.97;;;;;;;;;;5015260;28;20022;-79
2022/12/05 05:08:23;;;;;;;7.35;5.75;;;;;;;;;;4997712;28;20029;-80
2022/12/05 05:10:58;;;;;;;10.13;5.63;;;;;;;;;;4997615;28;20168;-80
2022/12/05 05:13:24;;;;;;;11.95;6.05;;;;;;;;;;5015406;28;20108;-79
2022/12/05 05:15:49;;;;;;;15.20;7.20;;;;;;;;;;5013775;28;20149;-78
2022/12/05 05:18:15;;;;;;;16.52;7.40;;;;;;;;;;5013773;28;20084;-79
2022/12/05 05:20:40;;;;;;;12.05;7.03;;;;;;;;;;5030579;28;20030;-79
2022/12/05 05:23:05;;;;;;;12.30;6.60;;;;;;;;;;5014184;28;20187;-78
2022/12/05 05:25:31;;;;;;;14.75;7.07;;;;;;;;;;5015208;28;20034;-79
2022/12/05 05:28:00;;;;;;;17.83;7.28;;;;;;;;;;5014076;28;20026;-80
2022/12/05 05:30:25;;;;;;;17.23;6.88;;;;;;;;;;5013594;28;20046;-80
2022/12/05 05:32:50;;;;;;;13.43;6.95;;;;;;;;;;4997454;28;20456;-79
2022/12/05 05:35:16;;;;;;;16.08;7.28;;;;;;;;;;5013595;28;20029;-79
2022/12/05 05:37:41;;;;;;;16.38;6.60;;;;;;;;;;5013733;28;20049;-81
2022/12/05 05:40:10;;;;;;;19.63;8.63;;;;;;;;;;5013822;28;20092;-82
2022/12/05 05:42:35;;;;;;;32.50;8.32;;;;;;;;;;5013863;28;20033;-81
2022/12/05 05:45:01;;;;;;;25.05;7.97;;;;;;;;;;5013681;28;20045;-80
2022/12/05 05:47:26;;;;;;;22.23;7.70;;;;;;;;;;5013732;28;20080;-80
2022/12/05 05:49:51;;;;;;;24.42;8.40;;;;;;;;;;5014226;28;20034;-80
2022/12/05 05:52:17;;;;;;;23.23;8.05;;;;;;;;;;5014771;28;20042;-79
2022/12/05 05:54:42;;;;;;;24.55;7.47;;;;;;;;;;5013204;28;20065;-80
2022/12/05 05:57:08;;;;;;;19.02;7.65;;;;;;;;;;5013463;28;20083;-81
2022/12/05 05:59:33;;;;;;;35.63;10.00;;;;;;;;;;5013180;28;20033;-81
2022/12/05 06:01:59;;;;;;;36.58;11.38;;;;;;;;;;5014842;28;20061;-82
2022/12/05 06:04:24;;;;;;;35.72;12.02;;;;;;;;;;5014392;28;20473;-81
2022/12/05 06:06:49;;;;;;;35.40;11.40;;;;;;;;;;5012944;28;20164;-81
2022/12/05 06:09:15;;;;;;;39.53;11.82;;;;;;;;;;5013192;28;20457;-80
2022/12/05 06:11:40;;;;;;;43.88;12.15;;;;;;;;;;5029276;28;20105;-81
2022/12/05 06:14:05;;;;;;;33.17;11.25;;;;;;;;;;5014385;28;20034;-81
2022/12/05 06:16:31;;;;;;;27.13;11.50;;;;;;;;;;5012877;28;20060;-81
2022/12/05 06:18:57;;;;;;;35.15;10.82;;;;;;;;;;5013240;28;20030;-81
2022/12/05 06:21:22;;;;;;;28.17;9.90;;;;;;;;;;4997520;28;20388;-80
2022/12/05 06:23:48;;;;;;;30.60;10.70;;;;;;;;;;5014264;28;20030;-80
2022/12/05 06:26:17;;;;;;;25.42;9.98;;;;;;;;;;5012824;28;20489;-81
2022/12/05 06:28:43;;;;;;;29.80;10.40;;;;;;;;;;5014589;28;20037;-80
2022/12/05 06:31:09;;;;;;;27.60;9.95;;;;;;;;;;5012810;28;20030;-81
2022/12/05 06:33:35;;;;;;;25.38;10.00;;;;;;;;;;5012691;28;20091;-80
2022/12/05 06:36:02;;;;;;;24.42;9.05;;;;;;;;;;5013558;28;20145;-81
2022/12/05 06:38:28;;;;;;;20.95;9.80;;;;;;;;;;5012606;28;20022;-80
2022/12/05 06:40:53;;;;;;;19.45;8.65;;;;;;;;;;5012553;28;20076;-80
2022/12/05 06:43:19;;;;;;;16.20;8.50;;;;;;;;;;5012487;28;20034;-81
2022/12/05 06:45:44;;;;;;;20.83;8.85;;;;;;;;;;5013970;28;20032;-80
2022/12/05 06:48:09;;;;;;;14.70;9.00;;;;;;;;;;5013677;28;20036;-81
2022/12/05 06:50:35;;;;;;;20.83;8.85;;;;;;;;;;5028736;28;20568;-82
2022/12/05 06:53:00;;;;;;;16.40;8.52;;;;;;;;;;5013541;28;20439;-81
2022/12/05 06:55:26;;;;;;;14.40;7.95;;;;;;;;;;5013605;28;20116;-80
2022/12/05 06:57:51;;;;;;;19.13;8.55;;;;;;;;;;5012299;28;20026;-81
2022/12/05 07:03:00;;;;;;;12.32;7.97;;;;;;;;;;5016598;28;20075;-81
2022/12/05 07:05:26;;;;;;;14.38;8.32;;;;;;;;;;5017540;28;20446;-81
2022/12/05 07:07:51;;;;;;;14.52;8.30;;;;;;;;;;5016518;28;20033;-81
2022/12/05 07:10:16;;;;;;;14.02;7.38;;;;;;;;;;5016601;28;20440;-81
2022/12/05 07:12:42;;;;;;;10.98;7.60;;;;;;;;;;5016737;28;20069;-81
2022/12/05 07:15:07;;;;;;;16.85;7.85;;;;;;;;;;5032532;28;20052;-81
2022/12/05 07:17:37;;;;;;;15.52;8.13;;;;;;;;;;5015996;28;20029;-82
2022/12/05 07:20:06;;;;;;;13.85;7.80;;;;;;;;;;5016086;28;20029;-81
2022/12/05 07:22:34;;;;;;;13.05;8.30;;;;;;;;;;5017285;28;20067;-81
2022/12/05 07:25:00;;;;;;;14.05;7.60;;;;;;;;;;5017491;28;20030;-81
2022/12/05 07:27:25;;;;;;;12.13;7.70;;;;;;;;;;5015925;28;20053;-81
2022/12/05 07:29:51;;;;;;;14.43;8.27;;;;;;;;;;5017065;28;20034;-81
2022/12/05 07:32:16;;;;;;;12.60;7.72;;;;;;;;;;5015691;28;20038;-80
2022/12/05 07:34:41;;;;;;;11.80;8.38;;;;;;;;;;5015704;28;20087;-81
2022/12/05 07:37:07;;;;;;;14.48;7.38;;;;;;;;;;5016773;28;20030;-81
2022/12/05 07:39:32;;;;;;;15.68;8.02;;;;;;;;;;5017084;28;20030;-80
2022/12/05 07:41:58;;;;;;;13.93;8.10;;;;;;;;;;5031972;28;20053;-81
2022/12/05 07:44:23;;;;;;;14.43;8.40;;;;;;;;;;5016719;28;20026;-81
2022/12/05 07:46:48;;;;;;;11.23;7.68;;;;;;;;;;5016990;28;20022;-81
2022/12/05 07:49:16;;;;;;;10.60;7.10;;;;;;;;;;5015355;28;20030;-81
2022/12/05 07:51:42;;;;;;;11.35;7.85;;;;;;;;;;5015349;28;20029;-81
2022/12/05 07:54:08;;;;;;;11.93;7.35;;;;;;;;;;5015305;28;20107;-81
2022/12/05 07:56:33;;;;;;;10.30;7.00;;;;;;;;;;5017023;28;20037;-81
2022/12/05 07:58:58;;;;;;;12.13;6.88;;;;;;;;;;5015194;28;20021;-81
2022/12/05 08:01:25;;;;;;;12.10;7.63;;;;;;;;;;5015266;28;20037;-81
2022/12/05 08:03:52;;;;;;;9.95;6.85;;;;;;;;;;5015414;28;20037;-81
2022/12/05 08:06:23;;;;;;;12.55;7.72;;;;;;;;;;5015302;28;20027;-81
2022/12/05 08:08:49;;;;;;;10.32;6.78;;;;;;;;;;5015291;28;20029;-81
2022/12/05 08:11:17;;;;;;;12.02;7.10;;;;;;;;;;5016888;28;20180;-79
2022/12/05 08:13:43;;;;;;;10.98;6.97;;;;;;;;;;5014948;28;20021;-81
2022/12/05 08:16:11;;;;;;;11.30;6.55;;;;;;;;;;5014979;28;20034;-81
2022/12/05 08:18:36;;;;;;;10.18;6.78;;;;;;;;;;5015230;28;20137;-82
2022/12/05 08:21:06;;;;;;;12.13;6.82;;;;;;;;;;5016158;28;20070;-82
2022/12/05 08:23:32;;;;;;;12.68;6.90;;;;;;;;;;5014971;28;20030;-82
2022/12/05 08:26:03;;;;;;;9.55;6.50;;;;;;;;;;4998460;28;20581;-81
2022/12/05 08:28:28;;;;;;;9.52;6.60;;;;;;;;;;5014866;28;20022;-82
2022/12/05 08:30:54;;;;;;;9.38;6.50;;;;;;;;;;5014685;28;20469;-82
2022/12/05 08:33:19;;;;;;;7.95;6.43;;;;;;;;;;5015343;28;20034;-81
2022/12/05 08:35:44;;;;;;;11.45;6.13;;;;;;;;;;5015658;28;20050;-82
2022/12/05 08:38:10;;;;;;;9.25;6.57;;;;;;;;;;4998540;28;20072;-82
2022/12/05 08:40:35;;;;;;;9.82;6.72;;;;;;;;;;4998853;28;20042;-81
2022/12/05 08:43:00;;;;;;;10.40;5.97;;;;;;;;;;5031064;28;20030;-81
2022/12/05 08:45:26;;;;;;;9.82;6.10;;;;;;;;;;5015704;28;20520;-81
2022/12/05 08:47:51;;;;;;;8.55;6.05;;;;;;;;;;5030741;28;20034;-81
2022/12/05 08:50:17;;;;;;;8.20;5.93;;;;;;;;;;5015518;28;20034;-81
2022/12/05 08:52:42;;;;;;;7.45;6.05;;;;;;;;;;5014632;28;20125;-81
2022/12/05 08:55:08;;;;;;;10.90;6.57;;;;;;;;;;5015421;28;20112;-81
2022/12/05 08:57:33;;;;;;;7.90;6.00;;;;;;;;;;5015720;28;20030;-81
2022/12/05 08:59:58;;;;;;;7.53;5.53;;;;;;;;;;5015704;28;20360;-81
2022/12/05 09:02:24;;;;;;;7.22;5.68;;;;;;;;;;5014182;28;20033;-81
2022/12/05 09:04:50;;;;;;;9.23;6.22;;;;;;;;;;5014706;28;20026;-81
2022/12/05 09:07:16;;;;;;;7.47;5.63;;;;;;;;;;5014190;28;20025;-81
2022/12/05 09:09:41;;;;;;;8.10;6.05;;;;;;;;;;5014358;28;20483;-82
2022/12/05 09:12:06;;;;;;;8.73;5.93;;;;;;;;;;5014291;28;20029;-81
2022/12/05 09:14:32;;;;;;;6.72;5.40;;;;;;;;;;5030315;28;20065;-82
2022/12/05 09:16:58;;;;;;;7.28;5.32;;;;;;;;;;5013742;28;20030;-81
2022/12/05 09:19:26;;;;;;;7.03;5.57;;;;;;;;;;5015248;28;20072;-81
2022/12/05 09:21:52;;;;;;;7.70;5.28;;;;;;;;;;4997798;28;20053;-81
2022/12/05 09:24:17;;;;;;;7.47;5.43;;;;;;;;;;4997564;28;20472;-80
2022/12/05 09:26:43;;;;;;;8.30;5.72;;;;;;;;;;5013753;28;20500;-80
2022/12/05 09:29:09;;;;;;;9.40;5.25;;;;;;;;;;5015192;28;20033;-80
2022/12/05 09:31:35;;;;;;;7.15;5.30;;;;;;;;;;5013791;28;20036;-80
2022/12/05 09:34:01;;;;;;;6.32;5.10;;;;;;;;;;5013362;28;20052;-79
2022/12/05 09:36:28;;;;;;;8.25;5.97;;;;;;;;;;5013574;28;20046;-82
2022/12/05 09:38:54;;;;;;;8.48;5.63;;;;;;;;;;5014098;28;20018;-79
2022/12/05 09:42:06;;;;;;;5.85;5.00;;;;;;;;;;4997244;28;20029;-79
2022/12/05 09:44:41;;;;;;;6.00;4.93;;;;;;;;;;5014169;28;20029;-82
2022/12/05 09:47:13;;;;;;;8.48;4.93;;;;;;;;;;5014835;28;20045;-81
2022/12/05 09:49:46;;;;;;;6.35;5.03;;;;;;;;;;5029724;28;20131;-81
2022/12/05 09:52:30;;;;;;;6.78;4.80;;;;;;;;;;4997099;28;20484;-81
2022/12/05 09:55:00;;;;;;;6.72;5.10;;;;;;;;;;5013317;28;20036;-81
2022/12/05 09:57:33;;;;;;;6.00;4.65;;;;;;;;;;5013156;28;20448;-81
2022/12/05 09:59:59;;;;;;;6.97;5.38;;;;;;;;;;5013149;28;20034;-81
2022/12/05 10:02:31;;;;;;;6.25;4.70;;;;;;;;;;5013483;28;20120;-81
2022/12/05 10:05:07;;;;;;;5.95;4.57;;;;;;;;;;5013161;28;20025;-81
2022/12/05 10:07:53;;;;;;;5.65;4.28;;;;;;;;;;5012990;28;20018;-81
2022/12/05 10:10:47;;;;;;;5.40;4.50;;;;;;;;;;5013152;28;20037;-82
2022/12/05 10:13:29;;;;;;;6.20;4.70;;;;;;;;;;5011670;28;20038;-81
2022/12/05 10:15:59;;;;;;;5.28;4.28;;;;;;;;;;4996472;28;20033;-80
2022/12/05 10:18:33;;;;;;;5.53;4.35;;;;;;;;;;5013288;28;20028;-80
2022/12/05 10:21:04;;;;;;;5.57;4.28;;;;;;;;;;4998708;28;20069;-82
2022/12/05 10:23:36;;;;;;;5.53;4.20;;;;;;;;;;5016422;28;20469;-80
2022/12/05 10:26:05;;;;;;;4.85;4.07;;;;;;;;;;5016175;28;20022;-80
2022/12/05 10:28:36;;;;;;;6.25;4.30;;;;;;;;;;4999689;28;20030;-81
2022/12/05 10:31:06;;;;;;;5.60;4.07;;;;;;;;;;5017048;28;20041;-80
2022/12/05 10:33:39;;;;;;;5.93;4.35;;;;;;;;;;4999298;28;20036;-80
2022/12/05 10:36:14;;;;;;;5.35;4.40;;;;;;;;;;4997314;28;20073;-80
2022/12/05 10:38:41;;;;;;;4.68;3.70;;;;;;;;;;5014865;28;20435;-80
2022/12/05 10:41:08;;;;;;;4.70;3.95;;;;;;;;;;5017795;28;20385;-80
2022/12/05 10:43:34;;;;;;;5.10;4.20;;;;;;;;;;5015910;28;20026;-80
2022/12/05 10:46:00;;;;;;;3.97;3.58;;;;;;;;;;5014148;28;20037;-81
2022/12/05 10:48:26;;;;;;;4.10;3.70;;;;;;;;;;5013322;28;20125;-80
2022/12/05 10:50:56;;;;;;;4.60;3.42;;;;;;;;;;5013139;28;20080;-80
2022/12/05 10:53:40;;;;;;;5.18;3.90;;;;;;;;;;4996631;28;20032;-80
2022/12/05 10:56:34;;;;;;;3.95;3.40;;;;;;;;;;5019369;28;20500;-81
2022/12/05 10:59:00;;;;;;;3.78;3.17;;;;;;;;;;5014470;28;20493;-82
2022/12/05 11:01:25;;;;;;;5.05;3.42;;;;;;;;;;5013264;28;20145;-82
2022/12/05 11:03:59;;;;;;;4.32;3.10;;;;;;;;;;4996013;28;20029;-81
2022/12/05 11:06:26;;;;;;;;;;;;;;;;;;5014187;28;20105;-79
2022/12/05 11:09:02;;;;;;;8.15;3.17;;;;;;;;;;5012358;28;19909;-81
2022/12/05 11:11:32;;;;;;;3.88;2.75;;;;;;;;;;5012929;28;20188;-81
2022/12/05 11:14:00;;;;;;;3.53;2.70;;;;;;;;;;5012591;28;20022;-81
2022/12/05 11:16:37;;;;;;;3.78;2.97;;;;;;;;;;5012215;28;20080;-82
2022/12/05 11:19:20;;;;;;;3.58;2.60;;;;;;;;;;5013530;28;20037;-81
2022/12/05 11:21:48;;;;;;;3.53;2.60;;;;;;;;;;5013411;28;20030;-82
2022/12/05 11:24:31;;;;;;;3.50;2.55;;;;;;;;;;5012278;28;20041;-81
2022/12/05 11:26:59;;;;;;;2.72;2.42;;;;;;;;;;5012767;28;20479;-81
2022/12/05 11:29:31;;;;;;;2.83;2.30;;;;;;;;;;5012230;28;20488;-81
2022/12/05 11:31:57;;;;;;;3.03;2.42;;;;;;;;;;5013813;28;20420;-81
2022/12/05 11:34:27;;;;;;;2.58;2.22;;;;;;;;;;5012175;28;20056;-81
2022/12/05 11:36:56;;;;;;;4.75;2.45;;;;;;;;;;4996607;28;20029;-81
2022/12/05 11:39:23;;;;;;;3.03;2.15;;;;;;;;;;5012878;28;20184;-80
2022/12/05 11:42:19;;;;;;;2.83;2.22;;;;;;;;;;5014283;28;20037;-82
2022/12/05 11:45:20;;;;;;;2.67;2.10;;;;;;;;;;5030502;28;20488;-82
2022/12/05 11:48:31;;;;;;;1.88;1.77;;;;;;;;;;5010979;28;20038;-83
2022/12/05 11:51:16;;;;;;;2.80;2.00;;;;;;;;;;4998366;28;20030;-82
2022/12/05 11:53:56;;;;;;;2.10;1.90;;;;;;;;;;5016048;28;20022;-82
2022/12/05 11:56:31;;;;;;;3.58;2.00;;;;;;;;;;5017189;28;20030;-82
2022/12/05 11:59:08;;;;;;;3.50;2.13;;;;;;;;;;5016961;28;20022;-82
2022/12/05 12:01:50;;;;;;;2.70;1.85;;;;;;;;;;5015875;28;20432;-82
2022/12/05 12:04:33;;;;;;;3.63;2.03;;;;;;;;;;5016537;28;20061;-82
2022/12/05 12:07:21;;;;;;;2.00;1.80;;;;;;;;;;5015299;28;20049;-82
2022/12/05 12:10:06;;;;;;;2.33;2.00;;;;;;;;;;5015330;28;20384;-83
2022/12/05 12:12:31;;;;;;;2.08;1.70;;;;;;;;;;5016390;28;20167;-81
2022/12/05 12:15:34;;;;;;;1.80;1.70;;;;;;;;;;5016392;28;20488;-83
2022/12/05 12:18:14;;;;;;;2.28;1.52;;;;;;;;;;5016113;28;20030;-82
2022/12/05 12:21:10;;;;;;;1.75;1.45;;;;;;;;;;5015015;28;20026;-81
2022/12/05 12:23:48;;;;;;;2.10;1.80;;;;;;;;;;5031514;28;20030;-81
2022/12/05 12:26:20;;;;;;;3.38;1.58;;;;;;;;;;5016630;28;20079;-81
2022/12/05 12:29:11;;;;;;;4.10;1.80;;;;;;;;;;5015792;28;20017;-81
2022/12/05 12:31:54;;;;;;;1.85;1.50;;;;;;;;;;4998617;28;20041;-82
2022/12/05 12:34:38;;;;;;;3.47;1.95;;;;;;;;;;4998761;28;20028;-82
2022/12/05 12:37:22;;;;;;;1.83;1.40;;;;;;;;;;5016594;28;20065;-82
2022/12/05 12:40:00;;;;;;;8.50;2.00;;;;;;;;;;5015986;28;20033;-82
2022/12/05 12:42:28;;;;;;;1.70;1.40;;;;;;;;;;5016104;28;20030;-81
2022/12/05 12:45:15;;;;;;;1.80;1.50;;;;;;;;;;5015256;28;20088;-82
2022/12/05 12:48:08;;;;;;;4.43;1.60;;;;;;;;;;5031280;28;20033;-82
2022/12/05 12:50:38;;;;;;;4.20;1.77;;;;;;;;;;5014671;28;20037;-82
2022/12/05 12:53:07;;;;;;;2.75;2.10;;;;;;;;;;5014979;28;20102;-81
2022/12/05 12:55:44;;;;;;;1.88;1.60;;;;;;;;;;5030962;28;20029;-82
2022/12/05 12:58:18;;;;;;;3.10;1.60;;;;;;;;;;5015086;28;20036;-80
2022/12/05 13:00:52;;;;;;;;;;;;;;;;;;5031289;28;20044;-81
2022/12/05 13:03:26;;;;;;;7.03;1.60;;;;;;;;;;5015783;28;19909;-80
2022/12/05 13:06:05;;;;;;;3.45;1.50;;;;;;;;;;5014653;28;20052;-80
2022/12/05 13:08:42;;;;;;;2.08;1.40;;;;;;;;;;5014428;28;20022;-80
2022/12/05 13:11:10;;;;;;;2.08;1.60;;;;;;;;;;5014444;28;20065;-80
2022/12/05 13:13:37;;;;;;;1.70;1.55;;;;;;;;;;5014492;28;20032;-80
2022/12/05 13:16:06;;;;;;;2.53;1.75;;;;;;;;;;5014018;28;20022;-80
2022/12/05 13:18:32;;;;;;;1.77;1.50;;;;;;;;;;5013991;28;20029;-80
2022/12/05 13:21:00;;;;;;;5.85;1.60;;;;;;;;;;4997612;28;20069;-80
2022/12/05 13:23:31;;;;;;;2.55;1.60;;;;;;;;;;5012961;28;20026;-82
2022/12/05 13:25:59;;;;;;;5.00;1.75;;;;;;;;;;4995742;28;20083;-82
2022/12/05 13:28:31;;;;;;;5.22;1.80;;;;;;;;;;5013687;28;20025;-82
2022/12/05 13:30:57;;;;;;;3.80;1.60;;;;;;;;;;5013722;28;20088;-82
2022/12/05 13:33:29;;;;;;;4.20;1.50;;;;;;;;;;4997253;28;20128;-82
2022/12/05 13:44:35;;;;;;;1.85;1.60;;;;;;;;;;5013546;28;20036;-82
2022/12/05 13:47:06;;;;;;;2.90;1.38;;;;;;;;;;5013254;28;20026;-82
2022/12/05 13:49:36;;;;;;;1.73;1.52;;;;;;;;;;5013395;28;20033;-82
2022/12/05 13:52:08;;;;;;;2.15;1.50;;;;;;;;;;5013674;28;20530;-82
2022/12/05 13:54:44;;;;;;;2.40;1.70;;;;;;;;;;4996540;28;20025;-82
2022/12/05 13:57:39;;;;;;;4.88;1.50;;;;;;;;;;4996647;28;20018;-82
2022/12/05 14:00:08;;;;;;;2.45;1.60;;;;;;;;;;5014302;28;20037;-82
2022/12/05 14:02:42;;;;;;;1.80;1.50;;;;;;;;;;5013055;28;20030;-82
2022/12/05 14:05:20;;;;;;;2.35;1.50;;;;;;;;;;5013995;28;20041;-82
2022/12/05 14:07:48;;;;;;;5.68;1.52;;;;;;;;;;5014138;28;20087;-82
2022/12/05 14:10:19;;;;;;;4.88;1.38;;;;;;;;;;5013040;28;20018;-82
2022/12/05 14:12:56;;;;;;;1.30;1.20;;;;;;;;;;5012938;28;20381;-82
2022/12/05 14:15:41;;;;;;;3.55;1.60;;;;;;;;;;5012570;28;20554;-81
2022/12/05 14:18:16;;;;;;;1.70;1.38;;;;;;;;;;5013893;28;20492;-82
2022/12/05 14:21:03;;;;;;;11.45;1.45;;;;;;;;;;5014164;28;20038;-81
2022/12/05 14:23:55;;;;;;;2.38;1.35;;;;;;;;;;5011868;28;20076;-81
2022/12/05 14:26:31;;;;;;;10.13;1.70;;;;;;;;;;4993918;28;20022;-83
2022/12/05 14:29:15;;;;;;;3.38;1.40;;;;;;;;;;4994181;28;20026;-81
2022/12/05 14:32:02;;;;;;;3.03;1.20;;;;;;;;;;4993044;28;20038;-82
2022/12/05 14:34:29;;;;;;;3.17;1.70;;;;;;;;;;5013111;28;20037;-83
2022/12/05 14:37:16;;;;;;;4.85;1.40;;;;;;;;;;5012268;28;20500;-82
2022/12/05 14:39:44;;;;;;;5.93;1.40;;;;;;;;;;5012930;28;20037;-82
2022/12/05 14:42:23;;;;;;;2.03;1.27;;;;;;;;;;5013654;28;20033;-83
2022/12/05 14:44:50;;;;;;;2.55;1.27;;;;;;;;;;5012205;28;20381;-81
2022/12/05 14:47:22;;;;;;;2.25;1.50;;;;;;;;;;5012588;28;20021;-85
2022/12/05 14:50:11;;;;;;;2.67;1.50;;;;;;;;;;5012336;28;20043;-82
2022/12/05 14:52:39;;;;;;;3.65;1.73;;;;;;;;;;5013799;28;20026;-83
2022/12/05 14:55:10;;;;;;;2.63;1.40;;;;;;;;;;5013183;28;20026;-82
2022/12/05 14:57:44;;;;;;;1.38;1.27;;;;;;;;;;5012238;28;20033;-82
2022/12/05 15:00:18;;;;;;;4.70;1.17;;;;;;;;;;5012301;28;20113;-81
2022/12/05 15:02:45;;;;;;;1.52;1.23;;;;;;;;;;5012380;28;20034;-83
2022/12/05 15:05:25;;;;;;;1.38;1.20;;;;;;;;;;4996016;28;20128;-84
2022/12/05 15:07:51;;;;;;;2.10;1.20;;;;;;;;;;5012111;28;20464;-85
2022/12/05 15:10:33;;;;;;;3.05;1.40;;;;;;;;;;5012312;28;20021;-82
2022/12/05 15:13:03;;;;;;;6.32;1.60;;;;;;;;;;5012323;28;20041;-82
2022/12/05 15:15:35;;;;;;;4.47;1.30;;;;;;;;;;4995580;28;20026;-81
2022/12/05 15:18:19;;;;;;;1.95;1.23;;;;;;;;;;5013555;28;20076;-83